createdAt,value
2023-04-30T00:01:13.014Z,28.13
2023-04-30T00:03:14.599Z,28.04
2023-04-30T00:05:16.519Z,28.06
2023-04-30T00:07:18.093Z,28.03
2023-04-30T00:09:19.744Z,28.31
2023-04-30T00:11:21.548Z,28.32
2023-04-30T00:13:23.250Z,28.06
2023-04-30T00:15:24.889Z,28.12
2023-04-30T00:17:26.523Z,28.00
2023-04-30T00:19:28.083Z,28.26
2023-04-30T00:21:33.646Z,28.17
2023-04-30T00:23:35.499Z,28.21
2023-04-30T00:25:37.029Z,27.64
2023-04-30T00:27:40.780Z,28.32
2023-04-30T00:29:42.693Z,27.96
2023-04-30T00:31:44.421Z,27.98
2023-04-30T00:33:46.181Z,28.14
2023-04-30T00:35:47.838Z,27.85
2023-04-30T00:37:49.580Z,28.01
2023-04-30T00:39:51.317Z,28.39
2023-04-30T00:41:52.888Z,28.35
2023-04-30T00:43:54.569Z,28.02
2023-04-30T00:45:56.191Z,28.23
2023-04-30T00:47:58.014Z,27.88
2023-04-30T00:49:59.807Z,28.30
2023-04-30T00:52:01.897Z,28.17
2023-04-30T00:54:03.756Z,28.19
2023-04-30T00:56:06.128Z,27.91
2023-04-30T00:58:08.180Z,28.18
2023-04-30T01:00:11.369Z,28.18
2023-04-30T01:02:13.518Z,28.24
2023-04-30T01:04:15.257Z,28.15
2023-04-30T01:06:16.841Z,28.41
2023-04-30T01:08:18.466Z,28.02
2023-04-30T01:10:21.343Z,27.97
2023-04-30T01:13:03.603Z,28.14
2023-04-30T01:15:17.140Z,28.26
2023-04-30T01:17:39.105Z,28.05
2023-04-30T01:19:46.899Z,28.35
2023-04-30T01:21:49.271Z,28.38
2023-04-30T01:24:27.417Z,27.97
2023-04-30T01:26:37.973Z,28.34
2023-04-30T01:28:40.300Z,28.01
2023-04-30T01:30:44.901Z,28.07
2023-04-30T01:32:49.700Z,28.35
2023-04-30T01:34:51.273Z,28.09
2023-04-30T01:37:22.240Z,28.32
2023-04-30T01:39:40.100Z,28.26
2023-04-30T01:42:18.796Z,28.01
2023-04-30T01:44:37.698Z,28.11
2023-04-30T01:46:41.451Z,27.91
2023-04-30T01:49:07.503Z,28.23
2023-04-30T01:51:16.608Z,28.37
2023-04-30T01:53:35.680Z,28.04
2023-04-30T01:55:44.240Z,27.99
2023-04-30T01:57:56.868Z,28.26
2023-04-30T01:59:58.625Z,28.24
2023-04-30T02:02:00.502Z,27.97
2023-04-30T02:04:03.630Z,28.35
2023-04-30T02:06:05.421Z,28.29
2023-04-30T02:08:07.147Z,28.28
2023-04-30T02:10:09.467Z,28.30
2023-04-30T02:12:11.078Z,28.00
2023-04-30T02:14:12.675Z,28.16
2023-04-30T02:16:14.279Z,28.21
2023-04-30T02:18:15.981Z,27.80
2023-04-30T02:20:17.765Z,28.05
2023-04-30T02:22:19.439Z,28.22
2023-04-30T02:24:21.017Z,27.91
2023-04-30T02:26:22.714Z,27.70
2023-04-30T02:28:24.310Z,27.79
2023-04-30T02:30:26.014Z,27.70
2023-04-30T02:32:27.739Z,27.72
2023-04-30T02:34:29.758Z,28.11
2023-04-30T02:36:37.912Z,27.88
2023-04-30T02:38:39.459Z,28.29
2023-04-30T02:40:42.680Z,27.88
2023-04-30T02:42:44.229Z,27.76
2023-04-30T02:44:45.768Z,27.75
2023-04-30T02:46:47.287Z,28.00
2023-04-30T02:48:49.046Z,27.81
2023-04-30T02:50:50.638Z,28.10
2023-04-30T02:52:52.664Z,27.93
2023-04-30T02:54:54.381Z,27.82
2023-04-30T02:56:56.359Z,27.78
2023-04-30T02:58:57.885Z,28.10
2023-04-30T03:00:59.639Z,28.11
2023-04-30T03:03:01.451Z,28.02
2023-04-30T03:05:04.156Z,28.03
2023-04-30T03:07:06.852Z,27.59
2023-04-30T03:09:08.428Z,27.95
2023-04-30T03:11:09.981Z,27.74
2023-04-30T03:13:11.637Z,27.56
2023-04-30T03:15:13.553Z,27.85
2023-04-30T03:17:15.180Z,27.71
2023-04-30T03:19:17.533Z,27.80
2023-04-30T03:21:19.415Z,27.69
2023-04-30T03:23:21.695Z,27.98
2023-04-30T03:25:23.305Z,27.53
2023-04-30T03:27:24.809Z,27.45
2023-04-30T03:29:26.793Z,27.96
2023-04-30T03:31:28.446Z,27.70
2023-04-30T03:33:30.142Z,27.86
2023-04-30T03:35:32.344Z,27.67
2023-04-30T03:37:34.057Z,27.63
2023-04-30T03:39:35.651Z,27.88
2023-04-30T03:41:37.373Z,27.45
2023-04-30T03:43:38.883Z,27.64
2023-04-30T03:45:40.385Z,27.92
2023-04-30T03:47:43.271Z,28.02
2023-04-30T03:49:44.968Z,27.99
2023-04-30T03:51:46.949Z,27.70
2023-04-30T03:53:48.495Z,28.05
2023-04-30T03:55:50.153Z,27.50
2023-04-30T03:57:51.843Z,27.96
2023-04-30T03:59:53.713Z,27.76
2023-04-30T04:01:55.840Z,27.82
2023-04-30T04:03:57.413Z,27.63
2023-04-30T04:05:59.009Z,27.67
2023-04-30T04:08:03.396Z,27.89
2023-04-30T04:10:05.254Z,27.59
2023-04-30T04:12:06.820Z,27.72
2023-04-30T04:14:08.341Z,28.23
2023-04-30T04:16:10.046Z,27.96
2023-04-30T04:18:11.723Z,27.74
2023-04-30T04:20:14.121Z,28.00
2023-04-30T04:22:15.899Z,27.92
2023-04-30T04:24:17.560Z,27.70
2023-04-30T04:26:21.515Z,27.57
2023-04-30T04:28:23.201Z,27.88
2023-04-30T04:30:24.802Z,27.73
2023-04-30T04:32:27.302Z,28.01
2023-04-30T04:34:28.877Z,27.65
2023-04-30T04:36:31.017Z,27.97
2023-04-30T04:38:32.986Z,27.89
2023-04-30T04:40:35.519Z,28.14
2023-04-30T04:42:38.332Z,27.94
2023-04-30T04:44:41.262Z,27.86
2023-04-30T04:46:44.516Z,27.68
2023-04-30T04:48:46.924Z,27.87
2023-04-30T04:50:48.491Z,27.73
2023-04-30T04:52:50.052Z,27.58
2023-04-30T04:54:51.594Z,28.04
2023-04-30T04:56:53.144Z,27.58
2023-04-30T04:58:54.958Z,27.54
2023-04-30T05:00:57.448Z,27.81
2023-04-30T05:02:59.102Z,28.16
2023-04-30T05:05:01.664Z,27.61
2023-04-30T05:07:03.647Z,27.75
2023-04-30T05:09:08.920Z,27.55
2023-04-30T05:11:14.156Z,27.84
2023-04-30T05:13:17.255Z,27.84
2023-04-30T05:15:21.370Z,27.56
2023-04-30T05:17:22.962Z,27.81
2023-04-30T05:19:24.678Z,27.93
2023-04-30T05:21:29.483Z,27.65
2023-04-30T05:23:31.170Z,27.79
2023-04-30T05:25:32.824Z,27.87
2023-04-30T05:27:34.438Z,27.78
2023-04-30T05:29:36.055Z,27.67
2023-04-30T05:31:37.643Z,28.04
2023-04-30T05:33:40.762Z,27.67
2023-04-30T05:35:42.412Z,27.78
2023-04-30T05:37:44.185Z,27.65
2023-04-30T05:39:45.799Z,27.74
2023-04-30T05:41:47.492Z,27.59
2023-04-30T05:43:49.438Z,27.79
2023-04-30T05:45:51.269Z,27.69
2023-04-30T05:47:53.040Z,27.87
2023-04-30T05:49:54.898Z,27.46
2023-04-30T05:51:56.783Z,27.86
2023-04-30T05:53:58.393Z,27.60
2023-04-30T05:56:00.042Z,27.67
2023-04-30T05:58:01.727Z,28.02
2023-04-30T06:00:06.601Z,27.85
2023-04-30T06:02:09.644Z,27.95
2023-04-30T06:04:11.799Z,27.89
2023-04-30T06:06:13.990Z,27.76
2023-04-30T06:08:15.596Z,27.69
2023-04-30T06:10:17.247Z,27.46
2023-04-30T06:12:18.833Z,27.72
2023-04-30T06:14:22.682Z,27.58
2023-04-30T06:16:24.454Z,27.62
2023-04-30T06:18:26.153Z,27.57
2023-04-30T06:20:27.855Z,27.50
2023-04-30T06:22:30.769Z,27.71
2023-04-30T06:24:32.333Z,27.88
2023-04-30T06:26:34.040Z,27.78
2023-04-30T06:28:35.963Z,27.71
2023-04-30T06:30:37.619Z,27.54
2023-04-30T06:32:39.515Z,27.71
2023-04-30T06:34:41.232Z,27.67
2023-04-30T06:36:43.465Z,27.86
2023-04-30T06:38:46.884Z,27.51
2023-04-30T06:40:48.537Z,27.69
2023-04-30T06:42:50.245Z,27.52
2023-04-30T06:44:51.837Z,27.65
2023-04-30T06:46:56.001Z,27.62
2023-04-30T06:48:57.625Z,27.51
2023-04-30T06:50:59.284Z,27.54
2023-04-30T06:53:01.348Z,27.90
2023-04-30T06:55:03.464Z,27.61
2023-04-30T06:57:05.626Z,27.78
2023-04-30T06:59:07.505Z,27.60
2023-04-30T07:01:09.436Z,27.49
2023-04-30T07:03:11.281Z,27.46
2023-04-30T07:05:13.064Z,27.84
2023-04-30T07:07:17.442Z,27.65
2023-04-30T07:09:18.983Z,27.93
2023-04-30T07:11:20.559Z,27.71
2023-04-30T07:13:22.175Z,27.95
2023-04-30T07:15:23.805Z,27.97
2023-04-30T07:17:27.522Z,27.54
2023-04-30T07:19:29.371Z,27.55
2023-04-30T07:21:32.675Z,27.88
2023-04-30T07:23:34.823Z,27.64
2023-04-30T07:25:36.689Z,27.94
2023-04-30T07:27:38.485Z,27.55
2023-04-30T07:29:40.057Z,28.08
2023-04-30T07:31:41.691Z,27.46
2023-04-30T07:33:43.514Z,27.94
2023-04-30T07:35:45.100Z,27.73
2023-04-30T07:37:46.708Z,27.79
2023-04-30T07:39:48.260Z,27.61
2023-04-30T07:41:49.782Z,27.82
2023-04-30T07:43:51.453Z,27.73
2023-04-30T07:45:54.292Z,27.67
2023-04-30T07:47:56.199Z,27.88
2023-04-30T07:49:58.498Z,27.66
2023-04-30T07:52:01.435Z,28.03
2023-04-30T07:54:04.110Z,28.05
2023-04-30T07:56:06.357Z,27.92
2023-04-30T07:58:08.014Z,27.77
2023-04-30T08:00:09.810Z,27.99
2023-04-30T08:02:11.441Z,27.85
2023-04-30T08:04:13.226Z,27.79
2023-04-30T08:06:14.885Z,27.60
2023-04-30T08:08:16.492Z,27.82
2023-04-30T08:10:18.547Z,27.95
2023-04-30T08:12:20.103Z,27.85
2023-04-30T08:14:21.965Z,27.97
2023-04-30T08:16:23.578Z,27.70
2023-04-30T08:18:25.135Z,27.72
2023-04-30T08:20:27.008Z,28.01
2023-04-30T08:22:28.652Z,27.68
2023-04-30T08:24:30.358Z,27.86
2023-04-30T08:26:32.176Z,27.82
2023-04-30T08:28:33.840Z,27.75
2023-04-30T08:30:35.404Z,27.63
2023-04-30T08:32:39.730Z,27.99
2023-04-30T08:34:41.627Z,27.93
2023-04-30T08:36:43.210Z,27.86
2023-04-30T08:38:44.771Z,27.99
2023-04-30T08:41:11.195Z,27.71
2023-04-30T08:43:17.852Z,27.73
2023-04-30T08:45:19.829Z,27.82
2023-04-30T08:47:22.651Z,28.01
2023-04-30T08:49:25.382Z,28.13
2023-04-30T08:51:27.617Z,27.71
2023-04-30T08:53:35.033Z,28.17
2023-04-30T08:55:36.694Z,28.00
2023-04-30T08:57:38.637Z,28.08
2023-04-30T08:59:40.528Z,27.84
2023-04-30T09:01:42.204Z,27.50
2023-04-30T09:03:44.115Z,27.78
2023-04-30T09:05:46.258Z,27.71
2023-04-30T09:09:55.417Z,28.16
2023-04-30T09:12:20.693Z,28.00
2023-04-30T09:14:27.243Z,28.26
2023-04-30T09:16:32.969Z,27.94
2023-04-30T09:18:39.519Z,28.36
2023-04-30T09:21:03.620Z,28.15
2023-04-30T09:23:09.934Z,27.89
2023-04-30T09:25:11.665Z,28.34
2023-04-30T09:27:18.255Z,27.96
2023-04-30T09:29:19.756Z,28.00
2023-04-30T09:31:22.050Z,28.20
2023-04-30T09:33:23.792Z,28.23
2023-04-30T09:35:33.109Z,28.00
2023-04-30T09:37:38.025Z,28.28
2023-04-30T09:39:50.847Z,27.93
2023-04-30T09:41:52.517Z,28.15
2023-04-30T09:43:55.048Z,27.97
2023-04-30T09:45:58.549Z,27.85
2023-04-30T09:48:12.778Z,28.11
2023-04-30T09:50:18.505Z,28.43
2023-04-30T09:52:21.922Z,27.97
2023-04-30T09:54:27.494Z,28.23
2023-04-30T09:56:30.472Z,28.38
2023-04-30T09:58:33.046Z,28.16
2023-04-30T10:00:35.138Z,28.23
2023-04-30T10:02:37.356Z,28.09
2023-04-30T10:04:43.411Z,28.04
2023-04-30T10:06:46.031Z,28.03
2023-04-30T10:08:49.534Z,28.29
2023-04-30T10:11:00.404Z,28.08
2023-04-30T10:13:07.651Z,28.03
2023-04-30T10:15:17.534Z,28.16
2023-04-30T10:17:21.178Z,28.06
2023-04-30T10:19:24.291Z,28.34
2023-04-30T10:21:27.352Z,28.39
2023-04-30T10:23:30.123Z,28.15
2023-04-30T10:25:32.502Z,28.18
2023-04-30T10:27:34.705Z,28.35
2023-04-30T10:29:36.241Z,28.38
2023-04-30T10:31:38.356Z,27.93
2023-04-30T10:33:59.300Z,28.01
2023-04-30T10:36:04.513Z,28.39
2023-04-30T10:38:24.904Z,28.31
2023-04-30T10:40:27.118Z,28.13
2023-04-30T10:42:28.708Z,28.36
2023-04-30T10:44:37.052Z,28.33
2023-04-30T10:46:39.048Z,28.09
2023-04-30T10:48:40.887Z,28.08
2023-04-30T10:50:45.709Z,28.01
2023-04-30T10:52:48.272Z,27.77
2023-04-30T10:54:50.181Z,28.19
2023-04-30T10:56:52.623Z,28.05
2023-04-30T10:58:54.171Z,27.91
2023-04-30T11:01:05.247Z,27.93
2023-04-30T11:03:07.553Z,27.91
2023-04-30T11:05:15.853Z,28.02
2023-04-30T11:07:17.665Z,28.05
2023-04-30T11:09:36.526Z,28.29
2023-04-30T11:11:38.076Z,27.95
2023-04-30T11:13:47.032Z,27.62
2023-04-30T11:15:48.770Z,27.89
2023-04-30T11:17:51.086Z,27.67
2023-04-30T11:19:54.153Z,28.24
2023-04-30T11:22:04.902Z,28.17
2023-04-30T11:24:07.280Z,28.01
2023-04-30T11:26:09.312Z,28.00
2023-04-30T11:28:19.144Z,27.77
2023-04-30T11:30:21.435Z,27.67
2023-04-30T11:32:25.063Z,28.22
2023-04-30T11:34:27.019Z,27.64
2023-04-30T11:36:30.924Z,28.13
2023-04-30T11:38:36.672Z,28.08
2023-04-30T11:40:38.714Z,28.04
2023-04-30T11:42:45.730Z,27.94
2023-04-30T11:44:48.108Z,27.56
2023-04-30T11:46:49.925Z,27.86
2023-04-30T11:48:51.552Z,27.85
2023-04-30T11:50:53.124Z,27.77
2023-04-30T11:52:57.568Z,27.60
2023-04-30T11:55:00.385Z,27.59
2023-04-30T11:57:04.378Z,27.65
2023-04-30T11:59:12.404Z,27.51
2023-04-30T12:01:15.100Z,27.20
2023-04-30T12:03:19.726Z,27.26
2023-04-30T12:05:26.640Z,27.61
2023-04-30T12:07:28.373Z,27.54
2023-04-30T12:09:30.097Z,27.63
2023-04-30T12:11:32.105Z,27.42
2023-04-30T12:13:34.190Z,27.28
2023-04-30T12:15:37.107Z,27.27
2023-04-30T12:17:38.886Z,27.33
2023-04-30T12:19:40.527Z,27.54
2023-04-30T12:21:47.441Z,27.34
2023-04-30T12:23:49.189Z,27.19
2023-04-30T12:25:50.900Z,27.26
2023-04-30T12:27:53.382Z,27.09
2023-04-30T12:29:56.613Z,27.51
2023-04-30T12:31:59.414Z,27.56
2023-04-30T12:34:06.220Z,27.25
2023-04-30T12:36:11.265Z,27.14
2023-04-30T12:38:16.604Z,27.51
2023-04-30T12:40:19.921Z,27.16
2023-04-30T12:42:21.739Z,27.15
2023-04-30T12:44:26.279Z,27.19
2023-04-30T12:46:28.189Z,27.54
2023-04-30T12:48:29.928Z,27.56
2023-04-30T12:50:31.756Z,27.17
2023-04-30T12:52:33.572Z,27.34
2023-04-30T12:54:39.158Z,27.49
2023-04-30T12:56:57.891Z,27.41
2023-04-30T12:58:59.554Z,26.96
2023-04-30T13:01:01.742Z,26.99
2023-04-30T13:03:04.268Z,27.02
2023-04-30T13:05:07.028Z,27.24
2023-04-30T13:07:08.755Z,26.94
2023-04-30T13:09:10.480Z,27.19
2023-04-30T13:11:12.149Z,26.88
2023-04-30T13:13:15.804Z,27.16
2023-04-30T13:15:17.842Z,27.29
2023-04-30T13:17:19.677Z,26.88
2023-04-30T13:19:21.358Z,27.21
2023-04-30T13:21:24.749Z,27.00
2023-04-30T13:23:26.853Z,26.67
2023-04-30T13:25:28.456Z,26.87
2023-04-30T13:27:30.062Z,27.28
2023-04-30T13:29:31.927Z,27.18
2023-04-30T13:31:33.645Z,27.23
2023-04-30T13:33:35.376Z,27.12
2023-04-30T13:35:37.057Z,26.84
2023-04-30T13:37:39.244Z,26.98
2023-04-30T13:39:40.784Z,27.18
2023-04-30T13:41:42.446Z,26.90
2023-04-30T13:43:44.671Z,26.84
2023-04-30T13:45:46.811Z,26.93
2023-04-30T13:47:48.429Z,27.28
2023-04-30T13:49:50.060Z,27.25
2023-04-30T13:51:51.604Z,27.04
2023-04-30T13:53:53.169Z,27.14
2023-04-30T13:55:54.875Z,26.76
2023-04-30T13:57:57.444Z,26.89
2023-04-30T13:59:59.691Z,27.00
2023-04-30T14:02:01.337Z,27.25
2023-04-30T14:04:03.123Z,26.82
2023-04-30T14:06:05.975Z,27.15
2023-04-30T14:08:07.724Z,26.90
2023-04-30T14:10:09.585Z,27.21
2023-04-30T14:12:11.325Z,27.28
2023-04-30T14:14:12.922Z,26.93
2023-04-30T14:16:14.598Z,27.19
2023-04-30T14:18:16.743Z,27.25
2023-04-30T14:20:18.406Z,26.95
2023-04-30T14:22:20.072Z,26.80
2023-04-30T14:24:21.672Z,27.21
2023-04-30T14:26:23.328Z,27.13
2023-04-30T14:28:25.065Z,26.79
2023-04-30T14:30:26.730Z,27.26
2023-04-30T14:32:28.324Z,27.18
2023-04-30T14:34:29.922Z,26.99
2023-04-30T14:36:31.820Z,27.13
2023-04-30T14:38:33.468Z,26.90
2023-04-30T14:40:35.623Z,26.78
2023-04-30T14:42:37.527Z,26.72
2023-04-30T14:44:40.428Z,27.07
2023-04-30T14:46:42.172Z,26.89
2023-04-30T14:48:43.756Z,26.68
2023-04-30T14:50:45.924Z,27.14
2023-04-30T14:52:47.504Z,27.08
2023-04-30T14:54:49.207Z,26.62
2023-04-30T14:56:50.891Z,26.78
2023-04-30T14:58:53.528Z,26.58
2023-04-30T15:00:55.209Z,26.88
2023-04-30T15:02:56.902Z,27.04
2023-04-30T15:04:58.553Z,26.93
2023-04-30T15:07:00.809Z,26.85
2023-04-30T15:09:02.783Z,26.64
2023-04-30T15:11:07.021Z,26.99
2023-04-30T15:13:08.707Z,26.94
2023-04-30T15:15:10.705Z,26.58
2023-04-30T15:17:12.348Z,27.06
2023-04-30T15:19:13.893Z,26.48
2023-04-30T15:21:15.487Z,26.83
2023-04-30T15:23:17.141Z,26.93
2023-04-30T15:25:18.717Z,26.62
2023-04-30T15:27:20.378Z,26.95
2023-04-30T15:29:21.929Z,26.59
2023-04-30T15:31:24.252Z,26.98
2023-04-30T15:33:28.652Z,26.49
2023-04-30T15:35:30.331Z,26.55
2023-04-30T15:37:31.893Z,26.86
2023-04-30T15:39:35.104Z,27.03
2023-04-30T15:41:36.716Z,26.91
2023-04-30T15:43:38.724Z,26.70
2023-04-30T15:45:40.749Z,26.65
2023-04-30T15:47:42.486Z,26.66
2023-04-30T15:49:44.208Z,26.58
2023-04-30T15:51:46.260Z,26.99
2023-04-30T15:53:48.194Z,26.84
2023-04-30T15:55:50.638Z,26.90
2023-04-30T15:57:52.517Z,26.70
2023-04-30T15:59:54.936Z,26.45
2023-04-30T16:01:56.905Z,26.76
2023-04-30T16:04:00.423Z,26.87
2023-04-30T16:06:02.651Z,26.72
2023-04-30T16:08:06.641Z,26.52
2023-04-30T16:10:09.725Z,26.47
2023-04-30T16:12:12.413Z,26.93
2023-04-30T16:14:14.265Z,26.90
2023-04-30T16:16:16.532Z,26.39
2023-04-30T16:18:18.299Z,26.54
2023-04-30T16:20:20.413Z,26.55
2023-04-30T16:22:22.263Z,26.75
2023-04-30T16:24:24.299Z,26.60
2023-04-30T16:26:26.050Z,26.86
2023-04-30T16:28:30.240Z,26.47
2023-04-30T16:30:34.298Z,26.38
2023-04-30T16:32:37.342Z,26.68
2023-04-30T16:34:38.947Z,26.65
2023-04-30T16:36:41.033Z,26.68
2023-04-30T16:38:44.309Z,26.62
2023-04-30T16:40:46.119Z,26.59
2023-04-30T16:42:47.777Z,26.25
2023-04-30T16:44:49.352Z,26.62
2023-04-30T16:46:50.978Z,26.54
2023-04-30T16:48:52.691Z,26.57
2023-04-30T16:50:54.440Z,26.17
2023-04-30T16:52:55.967Z,26.66
2023-04-30T16:54:57.550Z,26.69
2023-04-30T16:56:59.132Z,26.58
2023-04-30T16:59:00.757Z,26.58
2023-04-30T17:01:02.495Z,26.76
2023-04-30T17:03:04.808Z,26.46
2023-04-30T17:05:07.393Z,26.68
2023-04-30T17:07:09.074Z,26.73
2023-04-30T17:09:11.022Z,26.35
2023-04-30T17:11:12.619Z,26.48
2023-04-30T17:13:14.502Z,26.49
2023-04-30T17:15:18.238Z,26.25
2023-04-30T17:17:20.161Z,26.40
2023-04-30T17:19:21.792Z,26.08
2023-04-30T17:21:28.548Z,26.32
2023-04-30T17:23:30.245Z,26.27
2023-04-30T17:25:33.597Z,26.40
2023-04-30T17:27:35.743Z,26.54
2023-04-30T17:29:37.593Z,26.41
2023-04-30T17:31:39.351Z,26.10
2023-04-30T17:33:41.550Z,26.18
2023-04-30T17:35:43.539Z,26.73
2023-04-30T17:37:45.150Z,26.32
2023-04-30T17:39:46.708Z,26.51
2023-04-30T17:41:49.097Z,26.40
2023-04-30T17:43:51.571Z,26.68
2023-04-30T17:45:54.347Z,26.28
2023-04-30T17:47:55.950Z,26.64
2023-04-30T17:49:58.242Z,26.05
2023-04-30T17:52:01.117Z,26.40
2023-04-30T17:54:02.862Z,26.22
2023-04-30T17:56:04.884Z,26.22
2023-04-30T17:58:09.966Z,26.05
2023-04-30T18:00:12.267Z,26.01
2023-04-30T18:02:13.997Z,25.92
2023-04-30T18:04:17.703Z,26.03
2023-04-30T18:06:19.676Z,26.01
2023-04-30T18:08:21.290Z,26.50
2023-04-30T18:10:22.947Z,25.96
2023-04-30T18:12:24.919Z,26.43
2023-04-30T18:14:26.902Z,26.43
2023-04-30T18:16:28.897Z,26.30
2023-04-30T18:18:30.977Z,26.38
2023-04-30T18:20:32.872Z,26.46
2023-04-30T18:22:34.985Z,26.70
2023-04-30T18:24:36.553Z,26.31
2023-04-30T18:26:38.126Z,26.06
2023-04-30T18:28:39.712Z,26.09
2023-04-30T18:30:41.663Z,26.31
2023-04-30T18:32:44.315Z,26.87
2023-04-30T18:34:46.138Z,26.29
2023-04-30T18:36:47.749Z,26.61
2023-04-30T18:38:50.021Z,26.70
2023-04-30T18:40:55.868Z,26.68
2023-04-30T18:42:57.550Z,26.78
2023-04-30T18:45:00.881Z,26.73
2023-04-30T18:47:03.039Z,26.91
2023-04-30T18:49:05.511Z,26.77
2023-04-30T18:51:07.342Z,26.50
2023-04-30T18:53:09.140Z,26.84
2023-04-30T18:55:13.618Z,27.05
2023-04-30T18:57:16.387Z,26.62
2023-04-30T18:59:19.081Z,26.67
2023-04-30T19:01:21.586Z,26.94
2023-04-30T19:03:23.396Z,26.97
2023-04-30T19:05:25.143Z,26.72
2023-04-30T19:07:26.686Z,26.79
2023-04-30T19:09:28.333Z,27.59
2023-04-30T19:11:30.378Z,26.98
2023-04-30T19:13:32.105Z,27.19
2023-04-30T19:15:33.719Z,27.39
2023-04-30T19:17:35.309Z,27.24
2023-04-30T19:19:36.904Z,27.03
2023-04-30T19:21:38.460Z,27.04
2023-04-30T19:23:40.124Z,27.12
2023-04-30T19:25:41.714Z,27.04
2023-04-30T19:27:44.088Z,27.41
2023-04-30T19:29:46.286Z,26.93
2023-04-30T19:31:48.515Z,27.05
2023-04-30T19:33:50.293Z,27.10
2023-04-30T19:35:56.108Z,27.00
2023-04-30T19:37:57.693Z,27.19
2023-04-30T19:39:59.546Z,27.43
2023-04-30T19:42:01.612Z,27.20
2023-04-30T19:44:03.325Z,27.46
2023-04-30T19:46:05.104Z,27.80
2023-04-30T19:48:06.841Z,27.26
2023-04-30T19:50:09.042Z,27.50
2023-04-30T19:52:10.909Z,27.38
2023-04-30T19:54:14.581Z,27.26
2023-04-30T19:56:16.311Z,27.67
2023-04-30T19:58:17.900Z,27.38
2023-04-30T20:00:19.682Z,27.80
2023-04-30T20:02:21.544Z,27.72
2023-04-30T20:04:23.213Z,27.61
2023-04-30T20:06:24.924Z,27.61
2023-04-30T20:08:27.254Z,28.05
2023-04-30T20:10:29.878Z,27.76
2023-04-30T20:12:31.506Z,27.87
2023-04-30T20:14:33.016Z,28.06
2023-04-30T20:16:34.672Z,27.77
2023-04-30T20:18:36.251Z,28.15
2023-04-30T20:20:37.865Z,27.81
2023-04-30T20:22:39.609Z,27.78
2023-04-30T20:24:44.550Z,28.21
2023-04-30T20:26:46.745Z,27.79
2023-04-30T20:28:48.390Z,28.50
2023-04-30T20:30:50.016Z,28.06
2023-04-30T20:32:51.895Z,28.36
2023-04-30T20:34:54.390Z,28.19
2023-04-30T20:36:55.956Z,27.88
2023-04-30T20:38:58.643Z,28.43
2023-04-30T20:41:02.449Z,28.35
2023-04-30T20:43:04.284Z,28.54
2023-04-30T20:45:06.464Z,28.37
2023-04-30T20:47:10.907Z,28.01
2023-04-30T20:49:14.467Z,28.36
2023-04-30T20:51:16.073Z,28.55
2023-04-30T20:53:18.058Z,28.31
2023-04-30T20:55:19.755Z,28.28
2023-04-30T20:57:21.337Z,28.32
2023-04-30T20:59:22.887Z,28.31
2023-04-30T21:01:24.595Z,28.64
2023-04-30T21:03:26.729Z,28.20
2023-04-30T21:05:30.077Z,28.35
2023-04-30T21:07:34.536Z,28.61
2023-04-30T21:09:39.739Z,28.58
2023-04-30T21:11:41.916Z,28.74
2023-04-30T21:13:44.067Z,28.56
2023-04-30T21:15:47.109Z,28.48
2023-04-30T21:17:49.010Z,28.72
2023-04-30T21:19:50.652Z,28.75
2023-04-30T21:21:53.134Z,28.45
2023-04-30T21:23:54.688Z,28.52
2023-04-30T21:25:56.317Z,29.00
2023-04-30T21:27:57.974Z,28.90
2023-04-30T21:29:59.565Z,28.61
2023-04-30T21:32:02.564Z,28.76
2023-04-30T21:34:04.193Z,28.75
2023-04-30T21:36:06.146Z,29.11
2023-04-30T21:38:08.256Z,28.76
2023-04-30T21:40:10.947Z,29.11
2023-04-30T21:42:12.510Z,28.60
2023-04-30T21:44:14.368Z,29.07
2023-04-30T21:46:16.065Z,28.81
2023-04-30T21:48:18.565Z,28.95
2023-04-30T21:50:20.435Z,28.90
2023-04-30T21:52:22.387Z,29.18
2023-04-30T21:54:24.225Z,29.02
2023-04-30T21:56:25.989Z,29.26
2023-04-30T21:58:27.581Z,28.96
2023-04-30T22:00:30.170Z,28.83
2023-04-30T22:02:32.924Z,29.06
2023-04-30T22:04:34.984Z,29.00
2023-04-30T22:06:36.681Z,28.90
2023-04-30T22:08:38.252Z,28.71
2023-04-30T22:10:40.195Z,29.35
2023-04-30T22:12:43.316Z,29.28
2023-04-30T22:14:48.038Z,28.95
2023-04-30T22:16:49.733Z,29.16
2023-04-30T22:18:54.761Z,29.20
2023-04-30T22:20:57.447Z,29.23
2023-04-30T22:22:59.056Z,29.27
2023-04-30T22:25:00.702Z,29.15
2023-04-30T22:27:03.596Z,29.02
2023-04-30T22:29:05.482Z,29.08
2023-04-30T22:31:07.543Z,29.34
2023-04-30T22:33:09.240Z,29.61
2023-04-30T22:35:11.589Z,29.54
2023-04-30T22:37:13.151Z,29.30
2023-04-30T22:39:14.734Z,29.32
2023-04-30T22:41:16.402Z,29.48
2023-04-30T22:43:18.041Z,29.13
2023-04-30T22:45:19.755Z,29.22
2023-04-30T22:47:21.455Z,29.29
2023-04-30T22:49:31.313Z,29.22
2023-04-30T22:51:36.400Z,29.53
2023-04-30T22:53:38.661Z,29.36
2023-04-30T22:55:40.524Z,29.47
2023-04-30T22:57:42.122Z,29.48
2023-04-30T22:59:43.636Z,29.58
2023-04-30T23:01:45.536Z,29.76
2023-04-30T23:03:47.246Z,29.42
2023-04-30T23:05:51.436Z,29.81
2023-04-30T23:07:54.480Z,29.93
2023-04-30T23:09:56.391Z,29.49
2023-04-30T23:11:58.213Z,29.57
2023-04-30T23:14:00.098Z,29.40
2023-04-30T23:16:05.260Z,29.41
2023-04-30T23:18:06.911Z,29.52
2023-04-30T23:20:09.145Z,29.71
2023-04-30T23:22:10.795Z,29.77
2023-04-30T23:24:12.526Z,29.77
2023-04-30T23:26:14.121Z,29.78
2023-04-30T23:28:15.718Z,29.58
2023-04-30T23:30:17.300Z,29.60
2023-04-30T23:32:19.014Z,29.64
2023-04-30T23:34:21.562Z,29.59
2023-04-30T23:36:23.190Z,29.62
2023-04-30T23:38:25.500Z,29.56
2023-04-30T23:40:27.252Z,29.43
2023-04-30T23:42:28.952Z,29.88
2023-04-30T23:44:32.492Z,29.29
2023-04-30T23:46:34.368Z,29.39
2023-04-30T23:48:36.184Z,29.93
2023-04-30T23:50:40.636Z,29.50
2023-04-30T23:52:42.204Z,29.52
2023-04-30T23:54:43.808Z,29.33
2023-04-30T23:56:46.290Z,29.57
2023-04-30T23:58:47.866Z,29.67
